Terminal Aerodrome Forecast
Issued by NWS Chicago, IL

Home | Current Version | Previous Version | Graphics & Text | Print | Product List | Glossary On
Versions: 1 2 3 4 5 6 7 8 9 10 11 12 13 14 15 16 17 18 19 20 21 22 23 24 25 26 27 28 29 30 31 32
000
FTUS43 KLOT 260500
TAFRFD
TAF
KRFD 260520Z 2606/2706 20004KT 6SM BR BKN035
     FM260900 26005KT 5SM SHRA BR VCTS SCT015 BKN035CB
     FM261300 36008KT P6SM VCSH SCT040 BKN250
     FM261500 01008KT P6SM SCT040 BKN250
     FM261800 33009KT P6SM SCT040 BKN250
     FM270100 03005KT P6SM FEW150 BKN250=

USA.gov is the U.S. government's official web portal to all federal, state and local government web resources and services.